Time,TemperatureF,DewpointF,PressureIn,WindDirection,WindDirectionDegrees,WindSpeedMPH,WindSpeedGustMPH,Humidity,HourlyPrecipIn,Conditions,Clouds,dailyrainin,SoftwareType,DateUTC
2013-03-29 00:32:00,31.0,29.0,-100.00,North,0,0.0,-999.0,92,-99.99,,,-99.99,,2013-03-29 06:32:00,
2013-03-29 00:42:00,31.0,29.0,-100.00,North,0,0.0,-999.0,92,-99.99,,,-99.99,,2013-03-29 06:42:00,
2013-03-29 00:50:00,34.0,29.0,-100.00,East,80,9.0,-999.0,81,-99.99,,,-99.99,,2013-03-29 06:50:00,
2013-03-29 01:32:00,34.0,29.0,-100.00,East,80,9.0,-999.0,81,-99.99,,,-99.99,,2013-03-29 07:32:00,
2013-03-29 01:42:00,34.0,29.0,-100.00,East,80,9.0,-999.0,81,-99.99,,,-99.99,,2013-03-29 07:42:00,
2013-03-29 01:50:00,33.0,30.0,-100.00,NE,50,6.0,-999.0,88,-99.99,,,-99.99,,2013-03-29 07:50:00,
2013-03-29 02:32:00,33.0,30.0,-100.00,NE,50,6.0,-999.0,88,-99.99,,,-99.99,,2013-03-29 08:32:00,
2013-03-29 02:42:00,33.0,30.0,-100.00,NE,50,6.0,-999.0,88,-99.99,,,-99.99,,2013-03-29 08:42:00,
2013-03-29 02:50:00,33.0,30.0,-100.00,NE,50,8.0,-999.0,88,-99.99,,,-99.99,,2013-03-29 08:50:00,
2013-03-29 03:33:00,33.0,30.0,-100.00,NE,50,8.0,-999.0,88,-99.99,,,-99.99,,2013-03-29 09:33:00,
2013-03-29 03:42:00,33.0,30.0,-100.00,NE,50,8.0,-999.0,88,-99.99,,,-99.99,,2013-03-29 09:42:00,
2013-03-29 03:50:00,34.0,30.0,-100.00,East,80,3.0,-999.0,85,-99.99,,,-99.99,,2013-03-29 09:50:00,
2013-03-29 04:33:00,34.0,30.0,-100.00,East,80,3.0,-999.0,85,-99.99,,,-99.99,,2013-03-29 10:33:00,
2013-03-29 04:42:00,34.0,30.0,-100.00,East,80,3.0,-999.0,85,-99.99,,,-99.99,,2013-03-29 10:42:00,
2013-03-29 04:50:00,33.0,30.0,-100.00,SE,130,8.0,-999.0,89,-99.99,,,-99.99,,2013-03-29 10:50:00,
2013-03-29 05:33:00,33.0,30.0,-100.00,SE,130,8.0,-999.0,89,-99.99,,,-99.99,,2013-03-29 11:33:00,
2013-03-29 05:42:00,33.0,30.0,-100.00,SE,130,8.0,-999.0,89,-99.99,,,-99.99,,2013-03-29 11:42:00,
2013-03-29 05:50:00,34.0,30.0,-100.00,North,10,2.0,-999.0,85,-99.99,,,-99.99,,2013-03-29 11:50:00,
2013-03-29 06:32:00,34.0,30.0,-100.00,North,10,2.0,-999.0,85,-99.99,,,-99.99,,2013-03-29 12:32:00,
2013-03-29 06:42:00,34.0,30.0,-100.00,North,10,2.0,-999.0,85,-99.99,,,-99.99,,2013-03-29 12:42:00,
2013-03-29 06:50:00,32.0,29.0,-100.00,West,280,12.0,22.0,88,-99.99,,,-99.99,,2013-03-29 12:50:00,
2013-03-29 07:32:00,32.0,29.0,-100.00,West,280,12.0,22.0,88,-99.99,,,-99.99,,2013-03-29 13:32:00,
2013-03-29 07:42:00,32.0,29.0,-100.00,West,280,12.0,22.0,88,-99.99,,,-99.99,,2013-03-29 13:42:00,
2013-03-29 07:50:00,30.0,29.0,-100.00,NNE,20,5.0,-999.0,95,-99.99,,,-99.99,,2013-03-29 13:50:00,
2013-03-29 08:32:00,30.0,29.0,-100.00,NNE,20,5.0,-999.0,95,-99.99,,,-99.99,,2013-03-29 14:32:00,
2013-03-29 08:42:00,30.0,29.0,-100.00,NNE,20,5.0,-999.0,95,-99.99,,,-99.99,,2013-03-29 14:42:00,
2013-03-29 08:50:00,34.0,30.0,-100.00,NE,50,3.0,-999.0,85,-99.99,,,-99.99,,2013-03-29 14:50:00,
2013-03-29 09:33:00,34.0,30.0,-100.00,NE,50,3.0,-999.0,85,-99.99,,,-99.99,,2013-03-29 15:33:00,
2013-03-29 09:43:00,34.0,30.0,-100.00,NE,50,3.0,-999.0,85,-99.99,,,-99.99,,2013-03-29 15:43:00,
2013-03-29 09:50:00,38.0,33.0,-100.00,ESE,110,5.0,-999.0,82,-99.99,,,-99.99,,2013-03-29 15:50:00,
2013-03-29 10:33:00,38.0,33.0,-100.00,ESE,110,5.0,-999.0,82,-99.99,,,-99.99,,2013-03-29 16:33:00,
2013-03-29 10:42:00,38.0,33.0,-100.00,ESE,110,5.0,-999.0,82,-99.99,,,-99.99,,2013-03-29 16:42:00,
2013-03-29 10:50:00,40.0,34.0,-100.00,South,180,5.0,-999.0,79,-99.99,,,-99.99,,2013-03-29 16:50:00,
2013-03-29 11:33:00,40.0,34.0,-100.00,South,180,5.0,-999.0,79,-99.99,,,-99.99,,2013-03-29 17:33:00,
2013-03-29 11:43:00,40.0,34.0,-100.00,South,180,5.0,-999.0,79,-99.99,,,-99.99,,2013-03-29 17:43:00,
2013-03-29 11:50:00,40.0,34.0,-100.00,SSE,160,6.0,-999.0,79,-99.99,,,-99.99,,2013-03-29 17:50:00,
2013-03-29 12:32:00,40.0,34.0,-100.00,SSE,160,6.0,-999.0,79,-99.99,,,-99.99,,2013-03-29 18:32:00,
2013-03-29 12:42:00,40.0,34.0,-100.00,SSE,160,6.0,-999.0,79,-99.99,,,-99.99,,2013-03-29 18:42:00,
2013-03-29 12:50:00,44.0,36.0,-100.00,South,190,8.0,-999.0,72,-99.99,,,-99.99,,2013-03-29 18:50:00,
2013-03-29 13:32:00,44.0,36.0,-100.00,South,190,8.0,-999.0,72,-99.99,,,-99.99,,2013-03-29 19:32:00,
2013-03-29 13:42:00,44.0,36.0,-100.00,South,190,8.0,-999.0,72,-99.99,,,-99.99,,2013-03-29 19:42:00,
2013-03-29 13:50:00,51.0,39.0,-100.00,South,170,3.0,-999.0,63,-99.99,,,-99.99,,2013-03-29 19:50:00,
2013-03-29 14:33:00,51.0,39.0,-100.00,South,170,3.0,-999.0,63,-99.99,,,-99.99,,2013-03-29 20:33:00,
2013-03-29 14:42:00,51.0,39.0,-100.00,South,170,3.0,-999.0,63,-99.99,,,-99.99,,2013-03-29 20:42:00,
2013-03-29 14:50:00,51.0,38.0,-100.00,SE,140,3.0,-999.0,60,-99.99,,,-99.99,,2013-03-29 20:50:00,
2013-03-29 15:33:00,51.0,38.0,-100.00,SE,140,3.0,-999.0,60,-99.99,,,-99.99,,2013-03-29 21:33:00,
2013-03-29 15:42:00,51.0,38.0,-100.00,SE,140,3.0,-999.0,60,-99.99,,,-99.99,,2013-03-29 21:42:00,
2013-03-29 15:50:00,54.0,38.0,-100.00,SE,130,3.0,-999.0,54,-99.99,,,-99.99,,2013-03-29 21:50:00,
2013-03-29 16:33:00,54.0,38.0,-100.00,SE,130,3.0,-999.0,54,-99.99,,,-99.99,,2013-03-29 22:33:00,
2013-03-29 16:42:00,54.0,38.0,-100.00,SE,130,3.0,-999.0,54,-99.99,,,-99.99,,2013-03-29 22:42:00,
2013-03-29 16:50:00,56.0,40.0,-100.00,South,190,3.0,-999.0,54,-99.99,,,-99.99,,2013-03-29 22:50:00,
2013-03-29 17:32:00,56.0,40.0,-100.00,South,190,3.0,-999.0,54,-99.99,,,-99.99,,2013-03-29 23:32:00,
2013-03-29 17:42:00,56.0,40.0,-100.00,South,190,3.0,-999.0,54,-99.99,,,-99.99,,2013-03-29 23:42:00,
2013-03-29 17:50:00,55.0,39.0,-100.00,North,0,0.0,-999.0,54,-99.99,,,-99.99,,2013-03-29 23:50:00,
2013-03-29 18:32:00,55.0,39.0,-100.00,North,0,0.0,-999.0,54,-99.99,,,-99.99,,2013-03-30 00:32:00,
2013-03-29 18:42:00,55.0,39.0,-100.00,North,0,0.0,-999.0,54,-99.99,,,-99.99,,2013-03-30 00:42:00,
2013-03-29 18:50:00,52.0,40.0,-100.00,NNE,30,5.0,-999.0,63,-99.99,,,-99.99,,2013-03-30 00:50:00,
2013-03-29 19:33:00,52.0,40.0,-100.00,NNE,30,5.0,-999.0,63,-99.99,,,-99.99,,2013-03-30 01:33:00,
2013-03-29 19:43:00,52.0,40.0,-100.00,NNE,30,5.0,-999.0,63,-99.99,,,-99.99,,2013-03-30 01:43:00,
2013-03-29 19:50:00,48.0,40.0,-100.00,NNW,340,10.0,-999.0,73,-99.99,,,-99.99,,2013-03-30 01:50:00,
2013-03-29 20:32:00,48.0,40.0,-100.00,NNW,340,10.0,-999.0,73,-99.99,,,-99.99,,2013-03-30 02:32:00,
2013-03-29 20:42:00,48.0,40.0,-100.00,NNW,340,10.0,-999.0,73,-99.99,,,-99.99,,2013-03-30 02:42:00,
2013-03-29 20:50:00,46.0,38.0,-100.00,North,350,8.0,-999.0,73,-99.99,,,-99.99,,2013-03-30 02:50:00,
2013-03-29 21:33:00,46.0,38.0,-100.00,North,350,8.0,-999.0,73,-99.99,,,-99.99,,2013-03-30 03:33:00,
2013-03-29 21:43:00,46.0,38.0,-100.00,North,350,8.0,-999.0,73,-99.99,,,-99.99,,2013-03-30 03:43:00,
2013-03-29 21:50:00,42.0,38.0,-100.00,NNW,330,2.0,-999.0,85,-99.99,,,-99.99,,2013-03-30 03:50:00,
2013-03-29 22:32:00,42.0,38.0,-100.00,NNW,330,2.0,-999.0,85,-99.99,,,-99.99,,2013-03-30 04:32:00,
2013-03-29 22:43:00,42.0,38.0,-100.00,NNW,330,2.0,-999.0,85,-99.99,,,-99.99,,2013-03-30 04:43:00,
2013-03-29 22:50:00,42.0,37.0,-100.00,WNW,300,3.0,-999.0,82,-99.99,,,-99.99,,2013-03-30 04:50:00,
2013-03-29 23:32:00,42.0,37.0,-100.00,WNW,300,3.0,-999.0,82,-99.99,,,-99.99,,2013-03-30 05:32:00,
2013-03-29 23:42:00,42.0,37.0,-100.00,WNW,300,3.0,-999.0,82,-99.99,,,-99.99,,2013-03-30 05:42:00,
2013-03-29 23:50:00,40.0,36.0,-100.00,West,280,3.0,-999.0,85,-99.99,,,-99.99,,2013-03-30 05:50:00,